sensor_id;sensor_type;location;lat;lon;timestamp;P1;durP1;ratioP1;P2;durP2;ratioP2
42084;SDS011;27746;52.228;20.890;2023-06-10T00:01:38;10.40;;;8.43;;
42084;SDS011;27746;52.228;20.890;2023-06-10T00:04:06;12.95;;;9.45;;
42084;SDS011;27746;52.228;20.890;2023-06-10T00:06:33;11.90;;;9.18;;
42084;SDS011;27746;52.228;20.890;2023-06-10T00:09:02;14.13;;;9.30;;
42084;SDS011;27746;52.228;20.890;2023-06-10T00:11:31;11.27;;;8.40;;
42084;SDS011;27746;52.228;20.890;2023-06-10T00:13:57;10.50;;;8.43;;
42084;SDS011;27746;52.228;20.890;2023-06-10T00:16:26;15.82;;;8.43;;
42084;SDS011;27746;52.228;20.890;2023-06-10T00:18:53;15.10;;;9.05;;
42084;SDS011;27746;52.228;20.890;2023-06-10T00:21:26;12.68;;;6.90;;
42084;SDS011;27746;52.228;20.890;2023-06-10T00:23:53;17.73;;;7.90;;
42084;SDS011;27746;52.228;20.890;2023-06-10T00:26:20;12.48;;;7.32;;
42084;SDS011;27746;52.228;20.890;2023-06-10T00:28:48;17.65;;;6.53;;
42084;SDS011;27746;52.228;20.890;2023-06-10T00:31:15;11.75;;;6.07;;
42084;SDS011;27746;52.228;20.890;2023-06-10T00:33:43;10.32;;;5.75;;
42084;SDS011;27746;52.228;20.890;2023-06-10T00:36:10;10.30;;;6.00;;
42084;SDS011;27746;52.228;20.890;2023-06-10T00:38:37;11.02;;;5.38;;
42084;SDS011;27746;52.228;20.890;2023-06-10T00:41:05;9.40;;;5.50;;
42084;SDS011;27746;52.228;20.890;2023-06-10T00:43:32;10.35;;;6.03;;
42084;SDS011;27746;52.228;20.890;2023-06-10T00:45:59;8.63;;;5.05;;
42084;SDS011;27746;52.228;20.890;2023-06-10T00:48:26;7.28;;;5.10;;
42084;SDS011;27746;52.228;20.890;2023-06-10T00:50:55;8.07;;;4.63;;
42084;SDS011;27746;52.228;20.890;2023-06-10T00:53:23;9.48;;;5.18;;
42084;SDS011;27746;52.228;20.890;2023-06-10T00:55:50;8.95;;;5.30;;
42084;SDS011;27746;52.228;20.890;2023-06-10T00:58:17;9.80;;;5.32;;
42084;SDS011;27746;52.228;20.890;2023-06-10T01:00:44;10.07;;;5.57;;
42084;SDS011;27746;52.228;20.890;2023-06-10T01:03:11;8.93;;;5.00;;
42084;SDS011;27746;52.228;20.890;2023-06-10T01:05:39;9.60;;;5.03;;
42084;SDS011;27746;52.228;20.890;2023-06-10T01:08:09;11.82;;;4.78;;
42084;SDS011;27746;52.228;20.890;2023-06-10T01:10:46;8.93;;;4.85;;
42084;SDS011;27746;52.228;20.890;2023-06-10T01:13:16;9.50;;;5.28;;
42084;SDS011;27746;52.228;20.890;2023-06-10T01:15:49;12.93;;;5.50;;
42084;SDS011;27746;52.228;20.890;2023-06-10T01:18:16;8.32;;;4.72;;
42084;SDS011;27746;52.228;20.890;2023-06-10T01:20:43;8.75;;;4.57;;
42084;SDS011;27746;52.228;20.890;2023-06-10T01:23:13;11.73;;;5.07;;
42084;SDS011;27746;52.228;20.890;2023-06-10T01:25:42;15.55;;;5.47;;
42084;SDS011;27746;52.228;20.890;2023-06-10T01:28:13;8.80;;;4.73;;
42084;SDS011;27746;52.228;20.890;2023-06-10T01:30:44;7.90;;;4.63;;
42084;SDS011;27746;52.228;20.890;2023-06-10T01:33:17;7.95;;;4.45;;
42084;SDS011;27746;52.228;20.890;2023-06-10T01:35:48;7.22;;;4.85;;
42084;SDS011;27746;52.228;20.890;2023-06-10T01:38:19;9.43;;;4.85;;
42084;SDS011;27746;52.228;20.890;2023-06-10T01:40:47;9.85;;;5.03;;
42084;SDS011;27746;52.228;20.890;2023-06-10T01:43:15;9.10;;;4.25;;
42084;SDS011;27746;52.228;20.890;2023-06-10T01:45:42;10.48;;;4.65;;
42084;SDS011;27746;52.228;20.890;2023-06-10T01:48:09;9.75;;;4.72;;
42084;SDS011;27746;52.228;20.890;2023-06-10T01:50:36;10.65;;;4.68;;
42084;SDS011;27746;52.228;20.890;2023-06-10T01:53:03;8.07;;;4.35;;
42084;SDS011;27746;52.228;20.890;2023-06-10T01:55:31;7.00;;;4.13;;
42084;SDS011;27746;52.228;20.890;2023-06-10T01:57:58;11.10;;;4.95;;
42084;SDS011;27746;52.228;20.890;2023-06-10T02:00:25;9.18;;;5.10;;
42084;SDS011;27746;52.228;20.890;2023-06-10T02:02:52;8.32;;;4.70;;
42084;SDS011;27746;52.228;20.890;2023-06-10T02:05:19;20.73;;;5.05;;
42084;SDS011;27746;52.228;20.890;2023-06-10T02:07:45;9.10;;;4.95;;
42084;SDS011;27746;52.228;20.890;2023-06-10T02:10:12;10.82;;;5.43;;
42084;SDS011;27746;52.228;20.890;2023-06-10T02:12:40;8.18;;;4.65;;
42084;SDS011;27746;52.228;20.890;2023-06-10T02:15:07;9.63;;;4.75;;
42084;SDS011;27746;52.228;20.890;2023-06-10T02:17:34;11.38;;;4.93;;
42084;SDS011;27746;52.228;20.890;2023-06-10T02:20:02;9.55;;;4.90;;
42084;SDS011;27746;52.228;20.890;2023-06-10T02:22:32;8.32;;;5.18;;
42084;SDS011;27746;52.228;20.890;2023-06-10T02:24:59;9.38;;;4.00;;
42084;SDS011;27746;52.228;20.890;2023-06-10T02:27:25;10.95;;;5.45;;
42084;SDS011;27746;52.228;20.890;2023-06-10T02:29:54;13.15;;;4.88;;
42084;SDS011;27746;52.228;20.890;2023-06-10T02:32:20;10.35;;;4.70;;
42084;SDS011;27746;52.228;20.890;2023-06-10T02:34:47;8.57;;;4.78;;
42084;SDS011;27746;52.228;20.890;2023-06-10T02:37:15;10.15;;;4.97;;
42084;SDS011;27746;52.228;20.890;2023-06-10T02:39:41;12.07;;;5.20;;
42084;SDS011;27746;52.228;20.890;2023-06-10T02:42:08;11.65;;;4.55;;
42084;SDS011;27746;52.228;20.890;2023-06-10T02:44:36;9.10;;;4.95;;
42084;SDS011;27746;52.228;20.890;2023-06-10T02:47:05;10.68;;;4.70;;
42084;SDS011;27746;52.228;20.890;2023-06-10T02:49:32;9.05;;;4.55;;
42084;SDS011;27746;52.228;20.890;2023-06-10T02:51:59;8.32;;;4.43;;
42084;SDS011;27746;52.228;20.890;2023-06-10T02:54:26;8.30;;;5.10;;
42084;SDS011;27746;52.228;20.890;2023-06-10T02:56:53;10.13;;;4.85;;
42084;SDS011;27746;52.228;20.890;2023-06-10T02:59:20;7.13;;;4.35;;
42084;SDS011;27746;52.228;20.890;2023-06-10T03:01:47;8.52;;;4.57;;
42084;SDS011;27746;52.228;20.890;2023-06-10T03:04:16;8.20;;;5.05;;
42084;SDS011;27746;52.228;20.890;2023-06-10T03:06:43;10.52;;;5.07;;
42084;SDS011;27746;52.228;20.890;2023-06-10T03:09:11;13.07;;;4.80;;
42084;SDS011;27746;52.228;20.890;2023-06-10T03:11:38;9.75;;;5.00;;
42084;SDS011;27746;52.228;20.890;2023-06-10T03:14:05;10.00;;;5.63;;
42084;SDS011;27746;52.228;20.890;2023-06-10T03:16:32;11.40;;;4.90;;
42084;SDS011;27746;52.228;20.890;2023-06-10T03:18:59;10.05;;;4.57;;
42084;SDS011;27746;52.228;20.890;2023-06-10T03:21:27;9.93;;;4.70;;
42084;SDS011;27746;52.228;20.890;2023-06-10T03:23:54;13.20;;;5.22;;
42084;SDS011;27746;52.228;20.890;2023-06-10T03:26:21;9.23;;;4.47;;
42084;SDS011;27746;52.228;20.890;2023-06-10T03:28:47;9.65;;;4.97;;
42084;SDS011;27746;52.228;20.890;2023-06-10T03:31:14;8.73;;;4.75;;
42084;SDS011;27746;52.228;20.890;2023-06-10T03:33:42;10.48;;;4.60;;
42084;SDS011;27746;52.228;20.890;2023-06-10T03:36:09;9.43;;;4.20;;
42084;SDS011;27746;52.228;20.890;2023-06-10T03:38:38;11.43;;;4.90;;
42084;SDS011;27746;52.228;20.890;2023-06-10T03:41:05;7.68;;;4.75;;
42084;SDS011;27746;52.228;20.890;2023-06-10T03:43:31;12.27;;;4.75;;
42084;SDS011;27746;52.228;20.890;2023-06-10T03:45:58;8.38;;;4.25;;
42084;SDS011;27746;52.228;20.890;2023-06-10T03:48:25;9.57;;;4.50;;
42084;SDS011;27746;52.228;20.890;2023-06-10T03:50:52;6.97;;;4.15;;
42084;SDS011;27746;52.228;20.890;2023-06-10T03:53:19;14.50;;;4.05;;
42084;SDS011;27746;52.228;20.890;2023-06-10T03:55:49;7.55;;;4.07;;
42084;SDS011;27746;52.228;20.890;2023-06-10T03:58:16;8.15;;;4.55;;
42084;SDS011;27746;52.228;20.890;2023-06-10T04:00:43;9.10;;;4.40;;
42084;SDS011;27746;52.228;20.890;2023-06-10T04:03:10;9.45;;;5.32;;
42084;SDS011;27746;52.228;20.890;2023-06-10T04:05:39;11.98;;;4.20;;
42084;SDS011;27746;52.228;20.890;2023-06-10T04:08:07;9.02;;;5.18;;
42084;SDS011;27746;52.228;20.890;2023-06-10T04:10:34;11.43;;;5.10;;
42084;SDS011;27746;52.228;20.890;2023-06-10T04:13:03;9.07;;;4.90;;
42084;SDS011;27746;52.228;20.890;2023-06-10T04:15:30;13.55;;;4.63;;
42084;SDS011;27746;52.228;20.890;2023-06-10T04:17:58;9.02;;;4.45;;
42084;SDS011;27746;52.228;20.890;2023-06-10T04:20:26;11.27;;;4.47;;
42084;SDS011;27746;52.228;20.890;2023-06-10T04:22:53;8.13;;;4.55;;
42084;SDS011;27746;52.228;20.890;2023-06-10T04:25:20;11.18;;;4.78;;
42084;SDS011;27746;52.228;20.890;2023-06-10T04:27:46;9.00;;;4.60;;
42084;SDS011;27746;52.228;20.890;2023-06-10T04:30:15;9.48;;;4.38;;
42084;SDS011;27746;52.228;20.890;2023-06-10T04:32:42;10.85;;;4.10;;
42084;SDS011;27746;52.228;20.890;2023-06-10T04:35:11;8.60;;;4.47;;
42084;SDS011;27746;52.228;20.890;2023-06-10T04:37:38;10.38;;;4.43;;
42084;SDS011;27746;52.228;20.890;2023-06-10T04:40:05;11.65;;;4.43;;
42084;SDS011;27746;52.228;20.890;2023-06-10T04:42:33;11.50;;;4.38;;
42084;SDS011;27746;52.228;20.890;2023-06-10T04:45:00;9.90;;;4.80;;
42084;SDS011;27746;52.228;20.890;2023-06-10T04:47:28;11.63;;;5.05;;
42084;SDS011;27746;52.228;20.890;2023-06-10T04:49:58;16.58;;;5.13;;
42084;SDS011;27746;52.228;20.890;2023-06-10T04:52:25;9.60;;;4.82;;
42084;SDS011;27746;52.228;20.890;2023-06-10T04:54:52;11.23;;;5.45;;
42084;SDS011;27746;52.228;20.890;2023-06-10T04:57:18;12.05;;;5.40;;
42084;SDS011;27746;52.228;20.890;2023-06-10T04:59:46;9.43;;;4.57;;
42084;SDS011;27746;52.228;20.890;2023-06-10T05:02:13;14.85;;;4.38;;
42084;SDS011;27746;52.228;20.890;2023-06-10T05:04:41;12.10;;;4.88;;
42084;SDS011;27746;52.228;20.890;2023-06-10T05:07:08;6.57;;;4.60;;
42084;SDS011;27746;52.228;20.890;2023-06-10T05:09:35;9.23;;;4.10;;
42084;SDS011;27746;52.228;20.890;2023-06-10T05:12:02;8.43;;;4.30;;
42084;SDS011;27746;52.228;20.890;2023-06-10T05:14:29;15.07;;;4.75;;
42084;SDS011;27746;52.228;20.890;2023-06-10T05:16:57;10.05;;;4.32;;
42084;SDS011;27746;52.228;20.890;2023-06-10T05:19:23;7.85;;;4.38;;
42084;SDS011;27746;52.228;20.890;2023-06-10T05:21:52;10.10;;;4.13;;
42084;SDS011;27746;52.228;20.890;2023-06-10T05:24:18;18.73;;;4.75;;
42084;SDS011;27746;52.228;20.890;2023-06-10T05:26:46;9.75;;;4.70;;
42084;SDS011;27746;52.228;20.890;2023-06-10T05:29:13;13.48;;;5.13;;
42084;SDS011;27746;52.228;20.890;2023-06-10T05:31:41;8.88;;;4.32;;
42084;SDS011;27746;52.228;20.890;2023-06-10T05:34:08;10.98;;;5.00;;
42084;SDS011;27746;52.228;20.890;2023-06-10T05:36:35;8.93;;;3.90;;
42084;SDS011;27746;52.228;20.890;2023-06-10T05:39:03;7.90;;;4.45;;
42084;SDS011;27746;52.228;20.890;2023-06-10T05:41:30;12.35;;;4.15;;
42084;SDS011;27746;52.228;20.890;2023-06-10T05:43:57;7.22;;;4.38;;
42084;SDS011;27746;52.228;20.890;2023-06-10T05:46:24;12.98;;;4.82;;
42084;SDS011;27746;52.228;20.890;2023-06-10T05:48:51;7.22;;;4.82;;
42084;SDS011;27746;52.228;20.890;2023-06-10T05:51:17;8.20;;;4.43;;
42084;SDS011;27746;52.228;20.890;2023-06-10T05:53:44;8.77;;;4.43;;
42084;SDS011;27746;52.228;20.890;2023-06-10T05:56:13;10.30;;;4.00;;
42084;SDS011;27746;52.228;20.890;2023-06-10T05:58:39;9.27;;;5.07;;
42084;SDS011;27746;52.228;20.890;2023-06-10T06:01:06;10.20;;;4.32;;
42084;SDS011;27746;52.228;20.890;2023-06-10T06:03:33;11.70;;;4.25;;
42084;SDS011;27746;52.228;20.890;2023-06-10T06:06:00;7.78;;;4.80;;
42084;SDS011;27746;52.228;20.890;2023-06-10T06:08:28;8.15;;;4.03;;
42084;SDS011;27746;52.228;20.890;2023-06-10T06:10:55;8.73;;;4.40;;
42084;SDS011;27746;52.228;20.890;2023-06-10T06:13:24;13.27;;;5.57;;
42084;SDS011;27746;52.228;20.890;2023-06-10T06:15:50;10.95;;;4.47;;
42084;SDS011;27746;52.228;20.890;2023-06-10T06:18:17;9.30;;;4.43;;
42084;SDS011;27746;52.228;20.890;2023-06-10T06:20:44;9.88;;;5.00;;
42084;SDS011;27746;52.228;20.890;2023-06-10T06:23:11;9.30;;;4.82;;
42084;SDS011;27746;52.228;20.890;2023-06-10T06:25:38;9.70;;;4.63;;
42084;SDS011;27746;52.228;20.890;2023-06-10T06:28:05;10.75;;;4.60;;
42084;SDS011;27746;52.228;20.890;2023-06-10T06:30:34;9.65;;;4.50;;
42084;SDS011;27746;52.228;20.890;2023-06-10T06:33:01;7.88;;;4.53;;
42084;SDS011;27746;52.228;20.890;2023-06-10T06:35:30;8.93;;;4.60;;
42084;SDS011;27746;52.228;20.890;2023-06-10T06:37:57;10.63;;;4.32;;
42084;SDS011;27746;52.228;20.890;2023-06-10T06:40:23;10.43;;;5.13;;
42084;SDS011;27746;52.228;20.890;2023-06-10T06:42:50;12.00;;;4.93;;
42084;SDS011;27746;52.228;20.890;2023-06-10T06:45:36;9.60;;;4.28;;
42084;SDS011;27746;52.228;20.890;2023-06-10T06:48:03;10.55;;;5.25;;
42084;SDS011;27746;52.228;20.890;2023-06-10T06:50:31;9.70;;;4.65;;
42084;SDS011;27746;52.228;20.890;2023-06-10T06:52:57;12.95;;;5.25;;
42084;SDS011;27746;52.228;20.890;2023-06-10T06:55:24;11.07;;;5.15;;
42084;SDS011;27746;52.228;20.890;2023-06-10T06:57:51;8.10;;;4.53;;
42084;SDS011;27746;52.228;20.890;2023-06-10T07:00:18;15.85;;;4.90;;
42084;SDS011;27746;52.228;20.890;2023-06-10T07:02:46;8.80;;;4.22;;
42084;SDS011;27746;52.228;20.890;2023-06-10T07:05:14;9.68;;;4.75;;
42084;SDS011;27746;52.228;20.890;2023-06-10T07:07:41;9.32;;;4.72;;
42084;SDS011;27746;52.228;20.890;2023-06-10T07:10:08;10.02;;;4.47;;
42084;SDS011;27746;52.228;20.890;2023-06-10T07:12:35;9.57;;;4.85;;
42084;SDS011;27746;52.228;20.890;2023-06-10T07:15:02;9.15;;;4.68;;
42084;SDS011;27746;52.228;20.890;2023-06-10T07:17:29;7.95;;;4.03;;
42084;SDS011;27746;52.228;20.890;2023-06-10T07:19:57;9.48;;;4.60;;
42084;SDS011;27746;52.228;20.890;2023-06-10T07:22:24;9.38;;;4.88;;
42084;SDS011;27746;52.228;20.890;2023-06-10T07:24:51;9.02;;;4.50;;
42084;SDS011;27746;52.228;20.890;2023-06-10T07:27:19;11.00;;;5.05;;
42084;SDS011;27746;52.228;20.890;2023-06-10T07:29:46;8.55;;;4.28;;
42084;SDS011;27746;52.228;20.890;2023-06-10T07:32:13;9.80;;;5.07;;
42084;SDS011;27746;52.228;20.890;2023-06-10T07:34:40;13.77;;;4.82;;
42084;SDS011;27746;52.228;20.890;2023-06-10T07:37:08;8.30;;;4.93;;
42084;SDS011;27746;52.228;20.890;2023-06-10T07:39:35;9.10;;;4.60;;
42084;SDS011;27746;52.228;20.890;2023-06-10T07:42:02;11.27;;;4.18;;
42084;SDS011;27746;52.228;20.890;2023-06-10T07:44:29;9.32;;;4.47;;
42084;SDS011;27746;52.228;20.890;2023-06-10T07:46:56;8.95;;;4.50;;
42084;SDS011;27746;52.228;20.890;2023-06-10T07:49:23;8.35;;;4.72;;
42084;SDS011;27746;52.228;20.890;2023-06-10T07:51:50;7.97;;;5.40;;
42084;SDS011;27746;52.228;20.890;2023-06-10T07:54:18;9.13;;;4.78;;
42084;SDS011;27746;52.228;20.890;2023-06-10T07:56:45;12.73;;;4.88;;
42084;SDS011;27746;52.228;20.890;2023-06-10T07:59:13;9.55;;;4.38;;
42084;SDS011;27746;52.228;20.890;2023-06-10T08:01:40;10.85;;;4.18;;
42084;SDS011;27746;52.228;20.890;2023-06-10T08:04:08;8.30;;;4.65;;
42084;SDS011;27746;52.228;20.890;2023-06-10T08:06:35;7.50;;;4.45;;
42084;SDS011;27746;52.228;20.890;2023-06-10T08:09:02;9.35;;;5.00;;
42084;SDS011;27746;52.228;20.890;2023-06-10T08:11:31;11.90;;;4.45;;
42084;SDS011;27746;52.228;20.890;2023-06-10T08:13:57;7.03;;;3.90;;
42084;SDS011;27746;52.228;20.890;2023-06-10T08:16:24;7.68;;;4.63;;
42084;SDS011;27746;52.228;20.890;2023-06-10T08:18:51;9.20;;;4.65;;
42084;SDS011;27746;52.228;20.890;2023-06-10T08:21:18;12.70;;;5.05;;
42084;SDS011;27746;52.228;20.890;2023-06-10T08:23:45;11.20;;;5.00;;
42084;SDS011;27746;52.228;20.890;2023-06-10T08:26:12;10.13;;;5.05;;
42084;SDS011;27746;52.228;20.890;2023-06-10T08:28:40;11.27;;;4.13;;
42084;SDS011;27746;52.228;20.890;2023-06-10T08:31:07;10.55;;;4.63;;
42084;SDS011;27746;52.228;20.890;2023-06-10T08:33:34;9.93;;;4.55;;
42084;SDS011;27746;52.228;20.890;2023-06-10T08:36:01;9.30;;;5.25;;
42084;SDS011;27746;52.228;20.890;2023-06-10T08:38:28;9.27;;;4.65;;
42084;SDS011;27746;52.228;20.890;2023-06-10T08:40:56;7.65;;;4.50;;
42084;SDS011;27746;52.228;20.890;2023-06-10T08:43:26;8.07;;;4.40;;
42084;SDS011;27746;52.228;20.890;2023-06-10T08:46:00;7.13;;;4.07;;
42084;SDS011;27746;52.228;20.890;2023-06-10T08:48:29;10.73;;;5.15;;
42084;SDS011;27746;52.228;20.890;2023-06-10T08:50:56;9.13;;;5.03;;
42084;SDS011;27746;52.228;20.890;2023-06-10T08:53:24;11.07;;;4.47;;
42084;SDS011;27746;52.228;20.890;2023-06-10T08:55:53;8.30;;;4.65;;
42084;SDS011;27746;52.228;20.890;2023-06-10T08:58:25;8.55;;;4.10;;
42084;SDS011;27746;52.228;20.890;2023-06-10T09:00:53;8.68;;;4.45;;
42084;SDS011;27746;52.228;20.890;2023-06-10T09:03:22;10.93;;;4.53;;
42084;SDS011;27746;52.228;20.890;2023-06-10T09:05:50;6.78;;;4.30;;
42084;SDS011;27746;52.228;20.890;2023-06-10T09:08:17;7.13;;;4.43;;
42084;SDS011;27746;52.228;20.890;2023-06-10T09:10:44;10.45;;;4.90;;
42084;SDS011;27746;52.228;20.890;2023-06-10T09:13:12;11.20;;;4.90;;
42084;SDS011;27746;52.228;20.890;2023-06-10T09:15:40;9.32;;;5.25;;
42084;SDS011;27746;52.228;20.890;2023-06-10T09:18:07;10.23;;;4.95;;
42084;SDS011;27746;52.228;20.890;2023-06-10T09:20:35;9.68;;;5.50;;
42084;SDS011;27746;52.228;20.890;2023-06-10T09:23:04;8.07;;;4.70;;
42084;SDS011;27746;52.228;20.890;2023-06-10T09:25:35;10.55;;;4.80;;
42084;SDS011;27746;52.228;20.890;2023-06-10T09:28:03;12.07;;;4.97;;
42084;SDS011;27746;52.228;20.890;2023-06-10T09:30:31;7.97;;;4.43;;
42084;SDS011;27746;52.228;20.890;2023-06-10T09:32:59;7.68;;;5.00;;
42084;SDS011;27746;52.228;20.890;2023-06-10T09:35:28;7.30;;;4.68;;
42084;SDS011;27746;52.228;20.890;2023-06-10T09:37:58;10.18;;;4.57;;
42084;SDS011;27746;52.228;20.890;2023-06-10T09:40:25;9.32;;;4.80;;
42084;SDS011;27746;52.228;20.890;2023-06-10T09:42:53;7.65;;;4.35;;
42084;SDS011;27746;52.228;20.890;2023-06-10T09:45:21;7.25;;;4.05;;
42084;SDS011;27746;52.228;20.890;2023-06-10T09:47:51;8.93;;;4.20;;
42084;SDS011;27746;52.228;20.890;2023-06-10T09:50:18;8.60;;;4.75;;
42084;SDS011;27746;52.228;20.890;2023-06-10T09:52:46;6.53;;;3.90;;
42084;SDS011;27746;52.228;20.890;2023-06-10T09:55:14;9.23;;;4.32;;
42084;SDS011;27746;52.228;20.890;2023-06-10T09:57:41;9.68;;;4.30;;
42084;SDS011;27746;52.228;20.890;2023-06-10T10:00:12;8.18;;;3.88;;
42084;SDS011;27746;52.228;20.890;2023-06-10T10:02:44;8.45;;;4.05;;
42084;SDS011;27746;52.228;20.890;2023-06-10T10:05:13;9.07;;;4.10;;
42084;SDS011;27746;52.228;20.890;2023-06-10T10:07:40;7.30;;;4.00;;
42084;SDS011;27746;52.228;20.890;2023-06-10T10:10:08;8.15;;;4.03;;
42084;SDS011;27746;52.228;20.890;2023-06-10T10:12:39;9.73;;;3.85;;
42084;SDS011;27746;52.228;20.890;2023-06-10T10:15:06;6.75;;;3.72;;
42084;SDS011;27746;52.228;20.890;2023-06-10T10:17:35;8.52;;;3.00;;
42084;SDS011;27746;52.228;20.890;2023-06-10T10:20:06;13.20;;;3.63;;
42084;SDS011;27746;52.228;20.890;2023-06-10T10:22:35;7.85;;;3.45;;
42084;SDS011;27746;52.228;20.890;2023-06-10T10:25:06;8.52;;;3.45;;
42084;SDS011;27746;52.228;20.890;2023-06-10T10:27:40;11.48;;;3.38;;
42084;SDS011;27746;52.228;20.890;2023-06-10T10:30:11;11.95;;;4.15;;
42084;SDS011;27746;52.228;20.890;2023-06-10T10:32:43;7.90;;;4.82;;
42084;SDS011;27746;52.228;20.890;2023-06-10T10:35:18;6.47;;;3.20;;
42084;SDS011;27746;52.228;20.890;2023-06-10T10:37:48;9.93;;;4.22;;
42084;SDS011;27746;52.228;20.890;2023-06-10T10:40:15;9.52;;;3.78;;
42084;SDS011;27746;52.228;20.890;2023-06-10T10:42:44;8.05;;;3.78;;
42084;SDS011;27746;52.228;20.890;2023-06-10T10:45:11;6.32;;;3.60;;
42084;SDS011;27746;52.228;20.890;2023-06-10T10:47:38;6.85;;;3.50;;
42084;SDS011;27746;52.228;20.890;2023-06-10T10:50:12;5.35;;;3.45;;
42084;SDS011;27746;52.228;20.890;2023-06-10T10:52:51;6.90;;;3.67;;
42084;SDS011;27746;52.228;20.890;2023-06-10T10:55:21;5.60;;;3.35;;
42084;SDS011;27746;52.228;20.890;2023-06-10T10:57:57;9.57;;;3.17;;
42084;SDS011;27746;52.228;20.890;2023-06-10T11:00:26;7.00;;;3.80;;
42084;SDS011;27746;52.228;20.890;2023-06-10T11:02:57;7.32;;;3.63;;
42084;SDS011;27746;52.228;20.890;2023-06-10T11:05:31;7.40;;;3.67;;
42084;SDS011;27746;52.228;20.890;2023-06-10T11:08:03;9.77;;;4.50;;
42084;SDS011;27746;52.228;20.890;2023-06-10T11:10:30;10.30;;;3.60;;
42084;SDS011;27746;52.228;20.890;2023-06-10T11:12:59;8.45;;;4.20;;
42084;SDS011;27746;52.228;20.890;2023-06-10T11:15:28;10.02;;;4.25;;
42084;SDS011;27746;52.228;20.890;2023-06-10T11:18:11;6.55;;;3.58;;
42084;SDS011;27746;52.228;20.890;2023-06-10T11:20:56;9.18;;;3.90;;
42084;SDS011;27746;52.228;20.890;2023-06-10T11:23:34;6.03;;;3.45;;
42084;SDS011;27746;52.228;20.890;2023-06-10T11:26:21;16.25;;;3.97;;
42084;SDS011;27746;52.228;20.890;2023-06-10T11:29:05;7.00;;;4.10;;
42084;SDS011;27746;52.228;20.890;2023-06-10T11:31:38;10.45;;;4.10;;
42084;SDS011;27746;52.228;20.890;2023-06-10T11:34:07;8.18;;;3.70;;
42084;SDS011;27746;52.228;20.890;2023-06-10T11:36:36;7.82;;;4.13;;
42084;SDS011;27746;52.228;20.890;2023-06-10T11:39:05;6.75;;;4.00;;
42084;SDS011;27746;52.228;20.890;2023-06-10T11:41:34;8.18;;;4.05;;
42084;SDS011;27746;52.228;20.890;2023-06-10T11:44:02;6.93;;;3.92;;
42084;SDS011;27746;52.228;20.890;2023-06-10T11:46:31;8.40;;;3.60;;
42084;SDS011;27746;52.228;20.890;2023-06-10T11:49:00;6.32;;;3.97;;
42084;SDS011;27746;52.228;20.890;2023-06-10T11:51:28;6.80;;;3.88;;
42084;SDS011;27746;52.228;20.890;2023-06-10T11:53:56;6.78;;;3.65;;
42084;SDS011;27746;52.228;20.890;2023-06-10T11:56:23;9.93;;;4.40;;
42084;SDS011;27746;52.228;20.890;2023-06-10T11:58:52;9.55;;;4.00;;
42084;SDS011;27746;52.228;20.890;2023-06-10T12:01:20;7.03;;;4.05;;
42084;SDS011;27746;52.228;20.890;2023-06-10T12:03:50;10.80;;;3.92;;
42084;SDS011;27746;52.228;20.890;2023-06-10T12:06:23;7.65;;;3.78;;
42084;SDS011;27746;52.228;20.890;2023-06-10T12:08:50;11.02;;;4.47;;
42084;SDS011;27746;52.228;20.890;2023-06-10T12:11:17;8.52;;;4.38;;
42084;SDS011;27746;52.228;20.890;2023-06-10T12:13:47;6.53;;;4.38;;
42084;SDS011;27746;52.228;20.890;2023-06-10T12:16:15;8.75;;;3.75;;
42084;SDS011;27746;52.228;20.890;2023-06-10T12:18:44;9.32;;;4.20;;
42084;SDS011;27746;52.228;20.890;2023-06-10T12:21:23;6.93;;;4.30;;
42084;SDS011;27746;52.228;20.890;2023-06-10T12:24:03;5.90;;;3.47;;
42084;SDS011;27746;52.228;20.890;2023-06-10T12:26:35;11.65;;;4.05;;
42084;SDS011;27746;52.228;20.890;2023-06-10T12:35:16;8.27;;;4.18;;
42084;SDS011;27746;52.228;20.890;2023-06-10T12:37:58;7.10;;;3.92;;
42084;SDS011;27746;52.228;20.890;2023-06-10T12:40:27;7.53;;;4.03;;
42084;SDS011;27746;52.228;20.890;2023-06-10T12:42:54;8.32;;;3.97;;
42084;SDS011;27746;52.228;20.890;2023-06-10T12:45:28;9.73;;;4.05;;
42084;SDS011;27746;52.228;20.890;2023-06-10T12:48:06;7.97;;;3.90;;
42084;SDS011;27746;52.228;20.890;2023-06-10T12:50:35;8.35;;;4.22;;
42084;SDS011;27746;52.228;20.890;2023-06-10T12:53:07;8.57;;;4.10;;
42084;SDS011;27746;52.228;20.890;2023-06-10T12:55:34;7.53;;;4.65;;
42084;SDS011;27746;52.228;20.890;2023-06-10T12:58:01;5.80;;;4.07;;
42084;SDS011;27746;52.228;20.890;2023-06-10T13:00:28;10.13;;;5.15;;
42084;SDS011;27746;52.228;20.890;2023-06-10T13:02:55;8.80;;;4.75;;
42084;SDS011;27746;52.228;20.890;2023-06-10T13:05:22;8.82;;;4.47;;
42084;SDS011;27746;52.228;20.890;2023-06-10T13:07:49;9.60;;;4.60;;
42084;SDS011;27746;52.228;20.890;2023-06-10T13:10:17;7.28;;;4.57;;
42084;SDS011;27746;52.228;20.890;2023-06-10T13:12:45;8.10;;;3.97;;
42084;SDS011;27746;52.228;20.890;2023-06-10T13:15:12;6.97;;;3.80;;
42084;SDS011;27746;52.228;20.890;2023-06-10T13:17:40;10.38;;;4.35;;
42084;SDS011;27746;52.228;20.890;2023-06-10T13:20:08;9.60;;;4.60;;
42084;SDS011;27746;52.228;20.890;2023-06-10T13:22:35;6.95;;;5.07;;
42084;SDS011;27746;52.228;20.890;2023-06-10T13:25:03;9.18;;;4.75;;
42084;SDS011;27746;52.228;20.890;2023-06-10T13:27:33;6.30;;;4.72;;
42084;SDS011;27746;52.228;20.890;2023-06-10T13:30:00;6.38;;;4.10;;
42084;SDS011;27746;52.228;20.890;2023-06-10T13:32:27;7.90;;;5.25;;
42084;SDS011;27746;52.228;20.890;2023-06-10T13:34:54;9.88;;;4.63;;
42084;SDS011;27746;52.228;20.890;2023-06-10T13:37:22;7.07;;;4.43;;
42084;SDS011;27746;52.228;20.890;2023-06-10T13:39:49;9.00;;;4.57;;
42084;SDS011;27746;52.228;20.890;2023-06-10T13:42:16;11.15;;;5.10;;
42084;SDS011;27746;52.228;20.890;2023-06-10T13:44:44;8.02;;;4.45;;
42084;SDS011;27746;52.228;20.890;2023-06-10T13:47:12;6.97;;;4.30;;
42084;SDS011;27746;52.228;20.890;2023-06-10T13:49:39;9.20;;;4.43;;
42084;SDS011;27746;52.228;20.890;2023-06-10T13:52:07;10.95;;;5.53;;
42084;SDS011;27746;52.228;20.890;2023-06-10T13:54:34;10.02;;;5.60;;
42084;SDS011;27746;52.228;20.890;2023-06-10T13:57:02;10.20;;;4.25;;
42084;SDS011;27746;52.228;20.890;2023-06-10T13:59:29;7.82;;;4.55;;
42084;SDS011;27746;52.228;20.890;2023-06-10T14:01:57;9.18;;;4.43;;
42084;SDS011;27746;52.228;20.890;2023-06-10T14:04:24;6.88;;;4.18;;
42084;SDS011;27746;52.228;20.890;2023-06-10T14:06:50;12.93;;;4.82;;
42084;SDS011;27746;52.228;20.890;2023-06-10T14:09:17;12.13;;;5.07;;
42084;SDS011;27746;52.228;20.890;2023-06-10T14:11:44;6.80;;;4.07;;
42084;SDS011;27746;52.228;20.890;2023-06-10T14:14:12;15.93;;;5.00;;
42084;SDS011;27746;52.228;20.890;2023-06-10T14:16:43;7.80;;;4.75;;
42084;SDS011;27746;52.228;20.890;2023-06-10T14:19:11;6.88;;;4.60;;
42084;SDS011;27746;52.228;20.890;2023-06-10T14:21:38;12.60;;;4.65;;
42084;SDS011;27746;52.228;20.890;2023-06-10T14:24:05;9.93;;;5.07;;
42084;SDS011;27746;52.228;20.890;2023-06-10T14:26:32;9.68;;;4.72;;
42084;SDS011;27746;52.228;20.890;2023-06-10T14:28:59;10.30;;;4.28;;
42084;SDS011;27746;52.228;20.890;2023-06-10T14:31:27;8.63;;;4.60;;
42084;SDS011;27746;52.228;20.890;2023-06-10T14:33:54;9.68;;;4.78;;
42084;SDS011;27746;52.228;20.890;2023-06-10T14:36:22;7.50;;;4.82;;
42084;SDS011;27746;52.228;20.890;2023-06-10T14:38:49;7.88;;;4.90;;
42084;SDS011;27746;52.228;20.890;2023-06-10T14:41:16;8.30;;;5.03;;
42084;SDS011;27746;52.228;20.890;2023-06-10T14:43:43;9.80;;;4.30;;